Time;durP1;ratioP1;P1;durP2;ratioP2;P2;SDS_P1;SDS_P2;PMS_P1;PMS_P2;Temp;Humidity;BMP_temperature;BMP_pressure;BME280_temperature;BME280_humidity;BME280_pressure;Samples;Min_cycle;Max_cycle;Signal;HPM_P1;HPM_P2
2022/04/05 00:01:01;;;;;;;52.97;20.75;;;;;;;;;;6260799;28;20068;-60
2022/04/05 00:04:02;;;;;;;56.40;21.85;;;;;;;;;;6266616;28;20475;-60
2022/04/05 00:07:03;;;;;;;49.50;19.27;;;;;;;;;;6266141;28;20060;-60
2022/04/05 00:10:04;;;;;;;48.78;19.77;;;;;;;;;;6265327;28;20507;-60
2022/04/05 00:13:07;;;;;;;56.78;20.38;;;;;;;;;;6269399;28;20057;-62
2022/04/05 00:16:08;;;;;;;54.70;21.02;;;;;;;;;;6266693;28;20412;-62
2022/04/05 00:19:08;;;;;;;50.80;19.98;;;;;;;;;;6264873;28;20207;-60
2022/04/05 00:22:09;;;;;;;50.72;22.17;;;;;;;;;;6266863;28;20051;-59
2022/04/05 00:25:10;;;;;;;56.53;21.83;;;;;;;;;;6265071;28;20045;-60
2022/04/05 00:28:10;;;;;;;50.78;20.17;;;;;;;;;;6263830;28;20194;-60
2022/04/05 00:31:11;;;;;;;51.08;20.33;;;;;;;;;;6264696;28;20045;-60
2022/04/05 00:34:12;;;;;;;54.80;21.08;;;;;;;;;;6266927;28;20527;-60
2022/04/05 00:37:12;;;;;;;46.17;19.10;;;;;;;;;;6268322;28;20131;-61
2022/04/05 00:40:13;;;;;;;56.67;21.33;;;;;;;;;;6266807;28;20053;-59
2022/04/05 00:43:14;;;;;;;57.55;21.42;;;;;;;;;;6267297;28;20049;-60
2022/04/05 00:46:14;;;;;;;55.72;23.17;;;;;;;;;;6267624;28;20129;-59
2022/04/05 00:49:30;;;;;;;56.65;21.25;;;;;;;;;;6265452;28;20539;-60
2022/04/05 00:52:30;;;;;;;55.40;22.13;;;;;;;;;;6264708;28;20389;-60
2022/04/05 00:55:32;;;;;;;54.75;21.17;;;;;;;;;;6261228;28;20051;-60
2022/04/05 00:58:34;;;;;;;60.50;23.23;;;;;;;;;;6265882;28;20041;-61
2022/04/05 01:01:37;;;;;;;53.65;21.17;;;;;;;;;;6265206;28;20069;-59
2022/04/05 01:04:42;;;;;;;56.28;21.98;;;;;;;;;;6266203;28;20385;-59
2022/04/05 01:07:46;;;;;;;57.88;21.98;;;;;;;;;;6264274;28;20139;-60
2022/04/05 01:10:47;;;;;;;59.47;22.48;;;;;;;;;;6264183;28;20053;-59
2022/04/05 01:13:48;;;;;;;54.05;21.05;;;;;;;;;;6266861;28;20170;-60
2022/04/05 01:16:48;;;;;;;59.28;22.33;;;;;;;;;;6267060;28;20049;-60
2022/04/05 01:19:49;;;;;;;60.22;23.17;;;;;;;;;;6264548;28;20049;-60
2022/04/05 01:22:53;;;;;;;61.78;22.85;;;;;;;;;;6264001;28;20093;-59
2022/04/05 01:25:56;;;;;;;62.38;23.25;;;;;;;;;;6265980;28;20073;-60
2022/04/05 01:28:57;;;;;;;;;;;;;;;;;;6267177;28;20052;-59
2022/04/05 01:32:04;;;;;;;56.08;21.20;;;;;;;;;;6265324;28;19947;-59
2022/04/05 01:35:06;;;;;;;53.45;19.88;;;;;;;;;;6263540;28;20052;-61
2022/04/05 01:38:07;;;;;;;;;;;;;;;;;;6267157;28;20044;-60
2022/04/05 01:41:07;;;;;;;60.70;21.10;;;;;;;;;;6264053;28;20029;-59
2022/04/05 01:44:10;;;;;;;57.78;21.95;;;;;;;;;;6266479;28;20583;-59
2022/04/05 01:47:13;;;;;;;54.63;21.33;;;;;;;;;;6265196;28;20052;-59
2022/04/05 01:50:14;;;;;;;60.63;23.30;;;;;;;;;;6264389;28;20106;-59
2022/04/05 01:53:15;;;;;;;57.10;22.50;;;;;;;;;;6265251;28;20053;-60
2022/04/05 01:56:16;;;;;;;61.53;21.90;;;;;;;;;;6265435;28;20593;-59
2022/04/05 01:59:27;;;;;;;62.42;24.55;;;;;;;;;;6264911;28;20340;-60
2022/04/05 02:02:28;;;;;;;62.20;23.55;;;;;;;;;;6263398;28;20064;-59
2022/04/05 02:05:28;;;;;;;58.05;22.40;;;;;;;;;;6265069;28;20565;-58
2022/04/05 02:08:29;;;;;;;63.83;25.15;;;;;;;;;;6265172;28;20102;-59
2022/04/05 02:11:30;;;;;;;63.13;25.15;;;;;;;;;;6262167;28;20129;-58
2022/04/05 02:14:30;;;;;;;62.38;23.50;;;;;;;;;;6263574;28;20052;-58
2022/04/05 02:17:31;;;;;;;68.28;24.45;;;;;;;;;;6265353;28;20135;-58
2022/04/05 02:20:33;;;;;;;65.65;25.63;;;;;;;;;;6263923;28;20076;-58
2022/04/05 02:23:34;;;;;;;63.50;25.85;;;;;;;;;;6265213;28;20041;-58
2022/04/05 02:26:34;;;;;;;58.38;24.13;;;;;;;;;;6265227;28;20053;-59
2022/04/05 02:29:35;;;;;;;60.60;24.75;;;;;;;;;;6264957;28;20122;-59
2022/04/05 02:32:35;;;;;;;62.28;24.23;;;;;;;;;;6263118;28;20549;-58
2022/04/05 02:35:37;;;;;;;57.97;23.20;;;;;;;;;;6264709;28;20410;-58
2022/04/05 02:38:38;;;;;;;58.97;23.05;;;;;;;;;;6264643;28;20079;-59
2022/04/05 02:41:39;;;;;;;58.78;22.10;;;;;;;;;;6262302;28;20491;-59
2022/04/05 02:44:39;;;;;;;56.85;23.08;;;;;;;;;;6262468;28;20070;-59
2022/04/05 02:47:40;;;;;;;59.78;24.13;;;;;;;;;;6261681;28;20051;-59
2022/04/05 02:50:42;;;;;;;60.33;22.65;;;;;;;;;;6262152;28;20055;-60
2022/04/05 02:53:42;;;;;;;60.47;24.20;;;;;;;;;;6262898;28;20072;-59
2022/04/05 02:56:43;;;;;;;58.08;22.75;;;;;;;;;;6263816;28;20045;-59
2022/04/05 02:59:44;;;;;;;57.17;22.45;;;;;;;;;;6264393;28;20428;-59
2022/04/05 03:02:45;;;;;;;57.42;22.48;;;;;;;;;;6262180;28;20068;-59
2022/04/05 03:05:45;;;;;;;56.53;22.30;;;;;;;;;;6264520;28;20168;-60
2022/04/05 03:08:46;;;;;;;57.33;21.85;;;;;;;;;;6263650;28;20059;-60
2022/04/05 03:11:46;;;;;;;62.38;22.80;;;;;;;;;;6262949;28;20081;-59
2022/04/05 03:14:47;;;;;;;51.13;21.08;;;;;;;;;;6265587;28;20045;-60
2022/04/05 03:17:47;;;;;;;59.13;22.80;;;;;;;;;;6264057;28;20052;-60
2022/04/05 03:20:48;;;;;;;51.17;20.50;;;;;;;;;;6261409;28;20144;-60
2022/04/05 03:23:49;;;;;;;52.80;21.65;;;;;;;;;;6264060;28;20055;-60
2022/04/05 03:26:49;;;;;;;51.67;22.42;;;;;;;;;;6264084;28;20049;-61
2022/04/05 03:29:50;;;;;;;48.83;20.42;;;;;;;;;;6261013;28;20041;-60
2022/04/05 03:32:50;;;;;;;48.15;20.50;;;;;;;;;;6261492;28;20044;-61
2022/04/05 03:35:54;;;;;;;46.03;19.38;;;;;;;;;;6267714;28;20119;-60
2022/04/05 03:38:54;;;;;;;49.03;19.70;;;;;;;;;;6267711;28;20079;-59
2022/04/05 03:41:56;;;;;;;46.85;19.85;;;;;;;;;;6267357;28;20067;-61
2022/04/05 03:44:57;;;;;;;42.85;18.90;;;;;;;;;;6270087;28;20041;-60
2022/04/05 03:47:58;;;;;;;48.13;19.77;;;;;;;;;;6269244;28;20591;-60
2022/04/05 03:50:59;;;;;;;44.67;19.70;;;;;;;;;;6265961;28;20423;-60
2022/04/05 03:53:59;;;;;;;42.35;18.05;;;;;;;;;;6267589;28;20044;-60
2022/04/05 03:57:00;;;;;;;46.38;19.48;;;;;;;;;;6267226;28;20061;-59
2022/04/05 04:00:00;;;;;;;42.70;17.95;;;;;;;;;;6267446;28;20059;-59
2022/04/05 04:03:01;;;;;;;47.50;19.67;;;;;;;;;;6265164;28;20044;-60
2022/04/05 04:06:02;;;;;;;40.92;17.65;;;;;;;;;;6266997;28;20048;-60
2022/04/05 04:09:03;;;;;;;43.28;18.15;;;;;;;;;;6267743;28;20389;-60
2022/04/05 04:12:04;;;;;;;41.60;18.33;;;;;;;;;;6266046;28;20049;-61
2022/04/05 04:15:06;;;;;;;43.63;19.40;;;;;;;;;;6267449;28;20056;-59
2022/04/05 04:18:07;;;;;;;39.65;17.58;;;;;;;;;;6267185;28;20045;-59
2022/04/05 04:21:08;;;;;;;35.13;15.98;;;;;;;;;;6266698;28;20068;-61
2022/04/05 04:24:08;;;;;;;31.50;15.68;;;;;;;;;;6267823;28;20136;-61
2022/04/05 04:27:11;;;;;;;34.60;16.23;;;;;;;;;;6267084;28;20057;-61
2022/04/05 04:30:11;;;;;;;;;;;;;;;;;;6267490;28;20045;-60
2022/04/05 04:33:13;;;;;;;34.33;15.73;;;;;;;;;;6266921;28;20303;-61
2022/04/05 04:36:13;;;;;;;31.48;15.90;;;;;;;;;;6267033;28;20057;-59
2022/04/05 04:39:17;;;;;;;32.08;15.65;;;;;;;;;;6267095;28;20680;-60
2022/04/05 04:42:17;;;;;;;37.75;17.13;;;;;;;;;;6267100;28;20044;-61
2022/04/05 04:45:18;;;;;;;34.72;15.80;;;;;;;;;;6266823;28;21856;-60
2022/04/05 04:48:19;;;;;;;32.80;15.02;;;;;;;;;;6264322;28;20060;-60
2022/04/05 04:51:20;;;;;;;31.27;14.90;;;;;;;;;;6264278;28;20075;-59
2022/04/05 04:54:21;;;;;;;34.05;15.30;;;;;;;;;;6266085;28;20044;-60
2022/04/05 04:57:23;;;;;;;31.90;15.95;;;;;;;;;;6265432;28;20149;-60
2022/04/05 05:00:24;;;;;;;32.97;14.57;;;;;;;;;;6265050;28;20041;-59
2022/04/05 05:03:24;;;;;;;30.95;15.05;;;;;;;;;;6264755;28;20511;-59
2022/04/05 05:06:25;;;;;;;35.33;16.13;;;;;;;;;;6265811;28;20060;-61
2022/04/05 05:09:26;;;;;;;30.13;14.82;;;;;;;;;;6265196;28;20048;-61
2022/04/05 05:12:26;;;;;;;29.95;14.68;;;;;;;;;;6264690;28;20126;-61
2022/04/05 05:15:27;;;;;;;32.50;15.55;;;;;;;;;;6263484;28;20472;-60
2022/04/05 05:18:28;;;;;;;32.85;15.43;;;;;;;;;;6264887;28;20499;-60
2022/04/05 05:21:29;;;;;;;32.20;15.70;;;;;;;;;;6264875;28;20052;-60
2022/04/05 05:24:29;;;;;;;33.20;16.40;;;;;;;;;;6255822;28;20076;-61
2022/04/05 05:27:30;;;;;;;31.10;16.13;;;;;;;;;;6263934;28;20492;-61
2022/04/05 05:30:32;;;;;;;36.45;16.67;;;;;;;;;;6257626;28;20140;-65
2022/04/05 05:33:32;;;;;;;37.65;18.17;;;;;;;;;;6257041;28;20072;-62
2022/04/05 05:36:33;;;;;;;35.05;17.27;;;;;;;;;;6262339;28;20114;-61
2022/04/05 05:39:33;;;;;;;35.83;17.63;;;;;;;;;;6261859;28;20045;-61
2022/04/05 05:42:34;;;;;;;32.78;16.73;;;;;;;;;;6258782;28;20079;-61
2022/04/05 05:45:36;;;;;;;35.50;17.05;;;;;;;;;;6262982;28;20041;-61
2022/04/05 05:48:36;;;;;;;35.97;17.35;;;;;;;;;;6250622;28;20076;-61
2022/04/05 05:51:37;;;;;;;34.58;16.73;;;;;;;;;;6263537;28;20045;-62
2022/04/05 05:54:38;;;;;;;36.53;17.10;;;;;;;;;;6262580;28;20045;-61
2022/04/05 05:57:39;;;;;;;35.90;17.27;;;;;;;;;;6259502;28;20056;-60
2022/04/05 06:00:39;;;;;;;37.33;17.13;;;;;;;;;;6260965;28;20063;-61
2022/04/05 06:03:40;;;;;;;35.95;19.08;;;;;;;;;;6254783;28;20037;-62
2022/04/05 06:06:42;;;;;;;37.22;18.77;;;;;;;;;;6266284;28;20126;-62
2022/04/05 06:09:43;;;;;;;33.72;16.77;;;;;;;;;;6260538;28;20083;-64
2022/04/05 06:12:45;;;;;;;39.83;19.95;;;;;;;;;;6255663;28;20040;-65
2022/04/05 06:15:46;;;;;;;34.53;17.05;;;;;;;;;;6252483;28;20462;-60
2022/04/05 06:18:47;;;;;;;38.05;17.80;;;;;;;;;;6259858;28;20133;-62
2022/04/05 06:21:48;;;;;;;32.65;15.95;;;;;;;;;;6259925;28;20049;-62
2022/04/05 06:24:48;;;;;;;31.80;16.25;;;;;;;;;;6260277;28;20053;-61
2022/04/05 06:27:49;;;;;;;33.28;15.93;;;;;;;;;;6260736;28;20052;-62
2022/04/05 06:30:50;;;;;;;32.97;16.02;;;;;;;;;;6257292;28;20522;-61
2022/04/05 06:33:51;;;;;;;29.98;15.43;;;;;;;;;;6249817;28;20067;-61
2022/04/05 06:36:53;;;;;;;31.50;15.48;;;;;;;;;;6261750;28;20079;-61
2022/04/05 06:39:54;;;;;;;30.35;14.95;;;;;;;;;;6255696;28;20076;-60
2022/04/05 06:42:55;;;;;;;27.35;13.63;;;;;;;;;;6254931;28;20074;-60
2022/04/05 06:45:56;;;;;;;27.75;14.43;;;;;;;;;;6258161;28;20049;-66
2022/04/05 06:48:57;;;;;;;27.17;14.73;;;;;;;;;;6257165;28;20568;-61
2022/04/05 06:51:58;;;;;;;44.95;19.20;;;;;;;;;;6258453;28;20077;-62
2022/04/05 06:54:58;;;;;;;30.85;15.10;;;;;;;;;;6259881;28;20053;-59
2022/04/05 06:57:59;;;;;;;32.58;16.55;;;;;;;;;;6260169;28;20053;-61
2022/04/05 07:01:00;;;;;;;29.60;15.02;;;;;;;;;;6251566;28;20037;-59
2022/04/05 07:04:03;;;;;;;27.33;13.90;;;;;;;;;;6254268;28;20543;-60
2022/04/05 07:07:03;;;;;;;26.33;14.30;;;;;;;;;;6260899;28;20045;-60
2022/04/05 07:10:05;;;;;;;27.05;14.80;;;;;;;;;;6255945;28;20061;-60
2022/04/05 07:13:08;;;;;;;27.58;14.07;;;;;;;;;;6263323;28;20534;-59
2022/04/05 07:16:09;;;;;;;25.30;13.88;;;;;;;;;;6263662;28;20084;-61
2022/04/05 07:19:09;;;;;;;25.90;13.55;;;;;;;;;;6266131;28;20049;-60
2022/04/05 07:22:10;;;;;;;23.27;12.93;;;;;;;;;;6260870;28;20041;-60
2022/04/05 07:25:10;;;;;;;22.98;12.02;;;;;;;;;;6250323;28;20054;-60
2022/04/05 07:28:11;;;;;;;24.48;12.70;;;;;;;;;;6252855;28;20126;-61
2022/04/05 07:31:12;;;;;;;23.25;12.10;;;;;;;;;;6265515;28;20053;-59
2022/04/05 07:34:12;;;;;;;24.88;13.07;;;;;;;;;;6268739;28;20495;-60
2022/04/05 07:37:13;;;;;;;22.83;12.52;;;;;;;;;;6271418;28;20041;-60
2022/04/05 07:40:15;;;;;;;20.70;11.00;;;;;;;;;;6262229;28;20528;-60
2022/04/05 07:43:24;;;;;;;22.38;12.07;;;;;;;;;;6267658;28;20146;-61
2022/04/05 07:46:25;;;;;;;21.80;11.75;;;;;;;;;;6268492;28;20107;-61
2022/04/05 07:49:26;;;;;;;21.25;11.30;;;;;;;;;;6267988;28;20057;-60
2022/04/05 07:52:27;;;;;;;18.65;10.38;;;;;;;;;;6264719;28;20069;-60
2022/04/05 07:55:28;;;;;;;18.00;10.30;;;;;;;;;;6263189;28;20055;-59
2022/04/05 07:58:29;;;;;;;34.92;14.80;;;;;;;;;;6267802;28;20080;-59
2022/04/05 08:01:29;;;;;;;19.40;11.15;;;;;;;;;;6263892;28;20439;-58
2022/04/05 08:04:30;;;;;;;20.80;10.18;;;;;;;;;;6259965;28;20053;-61
2022/04/05 08:07:31;;;;;;;17.67;9.80;;;;;;;;;;6264849;28;20045;-59
2022/04/05 08:10:31;;;;;;;17.13;10.00;;;;;;;;;;6264131;28;20484;-59
2022/04/05 08:13:32;;;;;;;18.48;10.70;;;;;;;;;;6257752;28;20575;-59
2022/04/05 08:16:32;;;;;;;26.70;10.70;;;;;;;;;;6264139;28;20064;-58
2022/04/05 08:19:33;;;;;;;17.90;10.75;;;;;;;;;;6261963;28;20152;-59
2022/04/05 08:22:34;;;;;;;16.30;10.10;;;;;;;;;;6264468;28;20055;-59
2022/04/05 08:25:35;;;;;;;16.83;8.88;;;;;;;;;;6266399;28;20110;-56
2022/04/05 08:28:35;;;;;;;17.10;10.00;;;;;;;;;;6262497;28;20049;-58
2022/04/05 08:31:36;;;;;;;16.60;9.07;;;;;;;;;;6261163;28;20552;-59
2022/04/05 08:34:41;;;;;;;17.20;9.98;;;;;;;;;;6256623;28;20057;-57
2022/04/05 08:37:42;;;;;;;15.90;9.18;;;;;;;;;;6260847;28;20095;-59
2022/04/05 08:40:43;;;;;;;16.73;10.20;;;;;;;;;;6260287;28;20167;-59
2022/04/05 08:43:43;;;;;;;16.40;8.25;;;;;;;;;;6262140;28;20051;-59
2022/04/05 08:46:45;;;;;;;18.23;8.73;;;;;;;;;;6261346;28;20079;-59
2022/04/05 08:49:46;;;;;;;15.97;9.10;;;;;;;;;;6258281;28;20060;-59
2022/04/05 08:52:48;;;;;;;15.57;9.27;;;;;;;;;;6260175;28;20958;-59
2022/04/05 08:55:49;;;;;;;14.90;8.70;;;;;;;;;;6259339;28;20049;-59
2022/04/05 08:58:49;;;;;;;15.38;8.80;;;;;;;;;;6262038;28;20069;-58
2022/04/05 09:01:53;;;;;;;15.20;8.80;;;;;;;;;;6263264;28;20880;-57
2022/04/05 09:04:54;;;;;;;15.35;8.30;;;;;;;;;;6256750;28;20119;-59
2022/04/05 09:08:15;;;;;;;14.05;8.63;;;;;;;;;;6262441;28;20186;-60
2022/04/05 09:11:20;;;;;;;14.60;8.35;;;;;;;;;;6260250;28;20064;-60
2022/04/05 09:14:28;;;;;;;13.13;8.35;;;;;;;;;;6261034;28;20319;-59
2022/04/05 09:17:39;;;;;;;13.30;8.18;;;;;;;;;;6264740;28;20796;-60
2022/04/05 09:20:48;;;;;;;18.30;9.63;;;;;;;;;;6249247;28;20041;-60
2022/04/05 09:23:52;;;;;;;16.48;9.60;;;;;;;;;;6259167;28;20130;-59
2022/04/05 09:26:52;;;;;;;15.10;8.73;;;;;;;;;;6258955;28;20057;-59
2022/04/05 09:29:53;;;;;;;15.27;8.65;;;;;;;;;;6253019;28;20075;-60
2022/04/05 09:32:56;;;;;;;13.45;7.55;;;;;;;;;;6257819;28;20052;-60
2022/04/05 09:36:10;;;;;;;;;;;;;;;;;;6251834;28;20500;-60
2022/04/05 09:39:24;;;;;;;13.98;7.10;;;;;;;;;;6261210;28;19931;-60
2022/04/05 09:42:25;;;;;;;14.63;7.85;;;;;;;;;;6257768;28;20080;-59
2022/04/05 09:46:01;;;;;;;13.65;7.18;;;;;;;;;;6255059;28;20879;-60
2022/04/05 09:49:02;;;;;;;13.25;7.85;;;;;;;;;;6234745;28;20049;-60
2022/04/05 09:52:29;;;;;;;18.60;9.05;;;;;;;;;;6260418;28;20128;-61
2022/04/05 09:55:30;;;;;;;15.63;8.90;;;;;;;;;;6253617;28;20060;-59
2022/04/05 09:58:31;;;;;;;19.52;11.65;;;;;;;;;;6262527;28;20833;-59
2022/04/05 10:01:35;;;;;;;28.45;14.85;;;;;;;;;;6261671;28;20449;-60
2022/04/05 10:04:36;;;;;;;19.50;11.15;;;;;;;;;;6249199;28;20055;-60
2022/04/05 10:07:36;;;;;;;15.98;9.15;;;;;;;;;;6259840;28;20087;-61
2022/04/05 10:10:37;;;;;;;19.48;12.70;;;;;;;;;;6264209;28;20531;-60
2022/04/05 10:13:38;;;;;;;15.23;9.18;;;;;;;;;;6256607;28;20053;-58
2022/04/05 10:16:39;;;;;;;14.13;8.35;;;;;;;;;;6262176;28;20076;-59
2022/04/05 10:19:47;;;;;;;14.03;9.00;;;;;;;;;;6263346;28;20419;-59
2022/04/05 10:22:53;;;;;;;14.95;8.35;;;;;;;;;;6263084;28;20524;-59
2022/04/05 10:25:54;;;;;;;12.93;7.65;;;;;;;;;;6257526;28;20045;-60
2022/04/05 10:28:57;;;;;;;12.38;7.70;;;;;;;;;;6259968;28;20132;-58
2022/04/05 10:32:07;;;;;;;14.10;8.43;;;;;;;;;;6260722;28;20060;-59
2022/04/05 10:35:10;;;;;;;12.38;8.10;;;;;;;;;;6261977;28;20107;-59
2022/04/05 10:38:11;;;;;;;15.80;8.57;;;;;;;;;;6254819;28;20052;-59
2022/04/05 10:41:20;;;;;;;12.97;8.33;;;;;;;;;;6260665;28;20392;-59
2022/04/05 10:44:23;;;;;;;15.23;9.05;;;;;;;;;;6262944;28;20306;-57
2022/04/05 10:47:23;;;;;;;14.30;8.43;;;;;;;;;;6260474;28;20462;-58
2022/04/05 10:50:24;;;;;;;16.30;10.20;;;;;;;;;;6255857;28;20041;-60
2022/04/05 10:53:34;;;;;;;16.05;9.63;;;;;;;;;;6259291;28;20468;-58
2022/04/05 10:56:34;;;;;;;15.45;8.93;;;;;;;;;;6256803;28;20502;-57
2022/04/05 11:00:10;;;;;;;14.23;8.88;;;;;;;;;;6258309;28;20053;-62
2022/04/05 11:03:11;;;;;;;14.90;8.50;;;;;;;;;;6239357;28;20437;-61
2022/04/05 11:06:11;;;;;;;15.43;8.95;;;;;;;;;;6263390;28;20048;-60
2022/04/05 11:09:25;;;;;;;17.58;9.05;;;;;;;;;;6257587;28;20437;-60
2022/04/05 11:12:30;;;;;;;15.18;9.25;;;;;;;;;;6261786;28;20056;-60
2022/04/05 11:15:45;;;;;;;16.42;9.57;;;;;;;;;;6255685;28;20798;-60
2022/04/05 11:18:46;;;;;;;15.30;9.15;;;;;;;;;;6259477;28;20051;-60
2022/04/05 11:22:00;;;;;;;18.42;9.70;;;;;;;;;;6264017;28;20452;-60
2022/04/05 11:25:10;;;;;;;15.55;9.27;;;;;;;;;;6261107;28;21927;-59
2022/04/05 11:28:19;;;;;;;14.95;8.15;;;;;;;;;;6263824;28;20154;-60
2022/04/05 11:31:37;;;;;;;15.93;8.57;;;;;;;;;;6259170;28;20060;-60
2022/04/05 11:34:45;;;;;;;14.13;8.43;;;;;;;;;;6258671;28;20044;-60
2022/04/05 11:37:46;;;;;;;12.75;7.72;;;;;;;;;;6261427;28;20069;-60
2022/04/05 11:41:29;;;;;;;14.93;7.75;;;;;;;;;;6260858;28;20471;-60
2022/04/05 11:44:29;;;;;;;13.07;8.00;;;;;;;;;;6257154;28;20057;-60
2022/04/05 11:47:30;;;;;;;18.38;8.25;;;;;;;;;;6259422;28;20065;-61
2022/04/05 11:50:37;;;;;;;15.07;8.55;;;;;;;;;;6261850;28;20048;-59
2022/04/05 11:53:38;;;;;;;15.70;8.10;;;;;;;;;;6257982;28;20431;-60
2022/04/05 11:56:41;;;;;;;13.30;8.50;;;;;;;;;;6261773;28;20044;-59
2022/04/05 11:59:42;;;;;;;22.55;13.48;;;;;;;;;;6261483;28;20546;-59
2022/04/05 12:02:42;;;;;;;12.70;7.32;;;;;;;;;;6259527;28;20175;-61
2022/04/05 12:05:44;;;;;;;20.85;13.35;;;;;;;;;;6260920;28;20126;-61
2022/04/05 12:08:46;;;;;;;13.70;8.90;;;;;;;;;;6259862;28;20084;-60
2022/04/05 12:11:48;;;;;;;;;;;;;;;;;;6264705;28;20159;-60
2022/04/05 12:14:48;;;;;;;12.10;6.97;;;;;;;;;;6261174;28;19971;-62
2022/04/05 12:17:51;;;;;;;12.43;7.15;;;;;;;;;;6261830;28;20758;-60
2022/04/05 12:20:58;;;;;;;11.45;6.78;;;;;;;;;;6257717;28;20056;-60
2022/04/05 12:23:59;;;;;;;12.52;6.43;;;;;;;;;;6258906;28;20507;-60
2022/04/05 12:27:02;;;;;;;10.13;6.30;;;;;;;;;;6264326;28;20045;-60
2022/04/05 12:30:03;;;;;;;11.40;6.75;;;;;;;;;;6264645;28;20040;-60
2022/04/05 12:33:04;;;;;;;11.85;6.78;;;;;;;;;;6264064;28;20071;-59
2022/04/05 12:36:06;;;;;;;13.52;8.30;;;;;;;;;;6267540;28;20056;-60
2022/04/05 12:39:25;;;;;;;9.82;6.57;;;;;;;;;;6264763;28;20142;-60
2022/04/05 12:42:37;;;;;;;12.38;6.97;;;;;;;;;;6265324;28;20060;-60
2022/04/05 12:45:38;;;;;;;12.07;7.68;;;;;;;;;;6265839;28;20041;-61
2022/04/05 12:48:40;;;;;;;14.15;8.90;;;;;;;;;;6266199;28;20106;-60
2022/04/05 12:51:41;;;;;;;16.40;10.68;;;;;;;;;;6264530;28;20063;-60
2022/04/05 12:54:47;;;;;;;15.73;9.73;;;;;;;;;;6267039;28;20045;-60
2022/04/05 12:57:50;;;;;;;13.90;9.02;;;;;;;;;;6265653;28;20463;-60
2022/04/05 13:00:50;;;;;;;15.15;8.70;;;;;;;;;;6268204;28;20080;-60
2022/04/05 13:03:59;;;;;;;15.05;9.55;;;;;;;;;;6247624;28;20045;-59
2022/04/05 13:07:03;;;;;;;16.00;8.75;;;;;;;;;;6268011;28;20095;-60
2022/04/05 13:10:10;;;;;;;14.43;8.95;;;;;;;;;;6267906;28;20597;-61
2022/04/05 13:13:38;;;;;;;13.48;8.70;;;;;;;;;;6263678;28;20072;-61
2022/04/05 13:16:39;;;;;;;14.73;9.32;;;;;;;;;;6265168;28;20048;-60
2022/04/05 13:19:40;;;;;;;17.15;9.13;;;;;;;;;;6266441;28;20044;-60
2022/04/05 13:22:40;;;;;;;15.77;9.48;;;;;;;;;;6266293;28;20097;-61
2022/04/05 13:25:41;;;;;;;18.95;11.07;;;;;;;;;;6262894;28;20037;-61
2022/04/05 13:28:41;;;;;;;21.23;11.82;;;;;;;;;;6265980;28;20060;-60
2022/04/05 13:31:46;;;;;;;28.67;15.27;;;;;;;;;;6248393;28;20098;-59
2022/04/05 13:34:47;;;;;;;14.43;8.98;;;;;;;;;;6251742;28;20052;-59
2022/04/05 13:37:47;;;;;;;14.68;9.57;;;;;;;;;;6256876;28;20055;-60
2022/04/05 13:40:48;;;;;;;16.63;9.15;;;;;;;;;;6260426;28;20049;-60
2022/04/05 13:43:49;;;;;;;14.05;8.90;;;;;;;;;;6264482;28;20041;-60
2022/04/05 13:46:49;;;;;;;15.77;9.38;;;;;;;;;;6264663;28;20057;-66
2022/04/05 13:49:50;;;;;;;13.80;8.80;;;;;;;;;;6252987;28;20041;-60
2022/04/05 13:52:51;;;;;;;15.27;9.07;;;;;;;;;;6262929;28;20055;-60
2022/04/05 13:55:51;;;;;;;15.60;9.68;;;;;;;;;;6260201;28;20056;-59
2022/04/05 13:58:52;;;;;;;14.68;8.82;;;;;;;;;;6258603;28;20125;-60
2022/04/05 14:01:53;;;;;;;16.73;10.02;;;;;;;;;;6256935;28;20048;-59
2022/04/05 14:04:54;;;;;;;15.07;9.75;;;;;;;;;;6260865;28;20067;-57
2022/04/05 14:07:54;;;;;;;15.23;9.50;;;;;;;;;;6262179;28;20519;-57
2022/04/05 14:10:55;;;;;;;15.73;8.93;;;;;;;;;;6263376;28;20132;-59
2022/04/05 14:13:57;;;;;;;17.40;9.52;;;;;;;;;;6247787;28;20056;-59
2022/04/05 14:16:57;;;;;;;17.47;9.97;;;;;;;;;;6252978;28;20551;-62
2022/04/05 14:19:58;;;;;;;16.50;10.10;;;;;;;;;;6254153;28;20298;-57
2022/04/05 14:22:58;;;;;;;15.93;9.70;;;;;;;;;;6261227;28;20045;-63
2022/04/05 14:26:00;;;;;;;21.17;11.65;;;;;;;;;;6258888;28;20049;-63
2022/04/05 14:29:01;;;;;;;19.60;11.07;;;;;;;;;;6256944;28;20053;-62
2022/04/05 14:32:02;;;;;;;22.20;12.27;;;;;;;;;;6260170;28;20073;-65
2022/04/05 14:35:03;;;;;;;22.58;11.90;;;;;;;;;;6248973;28;20055;-67
2022/04/05 14:38:04;;;;;;;24.25;13.90;;;;;;;;;;6263946;28;20072;-57
2022/04/05 14:41:06;;;;;;;23.23;14.00;;;;;;;;;;6257138;28;20055;-60
2022/04/05 14:44:06;;;;;;;24.88;14.05;;;;;;;;;;6262808;28;20053;-64
2022/04/05 14:47:07;;;;;;;25.15;14.00;;;;;;;;;;6256652;28;20092;-60
2022/04/05 14:50:09;;;;;;;26.70;13.77;;;;;;;;;;6256513;28;20495;-60
2022/04/05 14:53:10;;;;;;;27.92;14.23;;;;;;;;;;6250257;28;20098;-59
2022/04/05 14:56:11;;;;;;;24.55;14.43;;;;;;;;;;6243589;28;20061;-59
2022/04/05 14:59:11;;;;;;;35.40;18.23;;;;;;;;;;6239647;28;20055;-58
2022/04/05 15:02:12;;;;;;;37.85;20.25;;;;;;;;;;6241784;28;20080;-62
2022/04/05 15:05:16;;;;;;;34.10;19.48;;;;;;;;;;6245108;28;20378;-60
2022/04/05 15:08:16;;;;;;;32.75;18.77;;;;;;;;;;6254164;28;20077;-59
2022/04/05 15:11:18;;;;;;;41.30;21.65;;;;;;;;;;6242409;28;20485;-58
2022/04/05 15:14:18;;;;;;;37.47;21.27;;;;;;;;;;6248723;28;20136;-58
2022/04/05 15:17:19;;;;;;;39.33;21.30;;;;;;;;;;6239839;28;20056;-62
2022/04/05 15:20:21;;;;;;;35.45;20.35;;;;;;;;;;6237514;28;20771;-61
2022/04/05 15:23:26;;;;;;;36.30;20.60;;;;;;;;;;6241950;28;20079;-61
2022/04/05 15:26:28;;;;;;;35.88;20.88;;;;;;;;;;6240588;28;20482;-61
2022/04/05 15:29:39;;;;;;;34.38;20.08;;;;;;;;;;6244081;28;20049;-59
2022/04/05 15:32:41;;;;;;;36.83;19.50;;;;;;;;;;6245526;28;20045;-60
2022/04/05 15:35:42;;;;;;;38.38;20.60;;;;;;;;;;6246717;28;20045;-60
2022/04/05 15:38:42;;;;;;;36.15;20.10;;;;;;;;;;6243267;28;20179;-61
2022/04/05 15:41:43;;;;;;;38.15;21.10;;;;;;;;;;6242850;28;20542;-61
2022/04/05 15:44:43;;;;;;;39.22;20.65;;;;;;;;;;6244969;28;20049;-61
2022/04/05 15:47:44;;;;;;;42.13;21.98;;;;;;;;;;6245691;28;20058;-61
2022/04/05 15:50:45;;;;;;;41.78;22.42;;;;;;;;;;6244273;28;20104;-61
2022/04/05 15:53:45;;;;;;;45.67;22.52;;;;;;;;;;6250641;28;20057;-62
2022/04/05 15:56:46;;;;;;;52.55;27.48;;;;;;;;;;6248519;28;20059;-60
2022/04/05 15:59:46;;;;;;;40.67;23.15;;;;;;;;;;6243829;28;20041;-60
2022/04/05 16:02:49;;;;;;;45.33;23.60;;;;;;;;;;6252076;28;20420;-61
2022/04/05 16:05:49;;;;;;;42.92;23.92;;;;;;;;;;6246278;28;20048;-58
2022/04/05 16:08:51;;;;;;;52.45;25.45;;;;;;;;;;6246501;28;20404;-62
2022/04/05 16:11:54;;;;;;;51.58;25.33;;;;;;;;;;6252647;28;20050;-61
2022/04/05 16:14:55;;;;;;;55.00;27.35;;;;;;;;;;6250142;28;20041;-60
2022/04/05 16:17:55;;;;;;;54.80;28.45;;;;;;;;;;6251878;28;20091;-60
2022/04/05 16:20:56;;;;;;;56.08;29.27;;;;;;;;;;6252252;28;20103;-60
2022/04/05 16:23:56;;;;;;;54.47;26.75;;;;;;;;;;6248790;28;20056;-65
2022/04/05 16:26:57;;;;;;;52.03;25.73;;;;;;;;;;6260898;28;20493;-62
2022/04/05 16:29:58;;;;;;;47.45;24.65;;;;;;;;;;6264394;28;20047;-62
2022/04/05 16:33:00;;;;;;;49.85;25.48;;;;;;;;;;6264823;28;20088;-62
2022/04/05 16:36:01;;;;;;;;;;;;;;;;;;6261726;28;20060;-62
2022/04/05 16:39:03;;;;;;;54.33;27.30;;;;;;;;;;6261487;28;19955;-63
2022/04/05 16:42:03;;;;;;;56.70;28.03;;;;;;;;;;6264160;28;20511;-62
2022/04/05 16:45:06;;;;;;;57.80;28.95;;;;;;;;;;6261715;28;20052;-61
2022/04/05 16:48:07;;;;;;;69.75;31.52;;;;;;;;;;6260883;28;20053;-62
2022/04/05 16:51:08;;;;;;;60.53;29.10;;;;;;;;;;6243144;28;20077;-63
2022/04/05 16:54:11;;;;;;;59.17;25.98;;;;;;;;;;6246936;28;20041;-62
2022/04/05 16:57:13;;;;;;;85.85;33.65;;;;;;;;;;6262851;28;20138;-61
2022/04/05 17:00:15;;;;;;;70.32;32.08;;;;;;;;;;6262131;28;20071;-61
2022/04/05 17:03:16;;;;;;;81.63;37.22;;;;;;;;;;6261498;28;20091;-61
2022/04/05 17:06:17;;;;;;;74.40;33.67;;;;;;;;;;6258305;28;20500;-62
2022/04/05 17:09:21;;;;;;;75.93;33.05;;;;;;;;;;6262238;28;20091;-59
2022/04/05 17:12:21;;;;;;;71.43;32.25;;;;;;;;;;6260476;28;20049;-63
2022/04/05 17:15:22;;;;;;;94.88;38.58;;;;;;;;;;6251489;28;21549;-62
2022/04/05 17:18:22;;;;;;;81.20;34.85;;;;;;;;;;6262432;28;20041;-62
2022/04/05 17:21:23;;;;;;;110.15;41.25;;;;;;;;;;6260424;28;20050;-60
2022/04/05 17:24:24;;;;;;;143.23;47.03;;;;;;;;;;6260096;28;20132;-62
2022/04/05 17:27:25;;;;;;;95.22;38.65;;;;;;;;;;6263927;28;20468;-62
2022/04/05 17:30:27;;;;;;;77.15;36.55;;;;;;;;;;6259850;28;20160;-62
2022/04/05 17:33:27;;;;;;;94.60;42.88;;;;;;;;;;6260508;28;20060;-62
2022/04/05 17:36:28;;;;;;;89.15;42.28;;;;;;;;;;6244598;28;20140;-61
2022/04/05 17:39:29;;;;;;;87.35;42.47;;;;;;;;;;6242897;28;20488;-62
2022/04/05 17:42:29;;;;;;;76.97;40.00;;;;;;;;;;6244061;28;20474;-62
2022/04/05 17:45:30;;;;;;;84.53;40.38;;;;;;;;;;6252264;28;20072;-62
2022/04/05 17:48:31;;;;;;;93.22;44.53;;;;;;;;;;6263442;28;20055;-62